Terminal Aerodrome Forecast
Issued by NWS

Home | Current Version | Previous Version | Text Only | Print | Product List | Glossary On
Versions: 1 2 3 4 5 6 7 8 9 10 11 12 13
000
FTUS45 KABQ 291727
TAFLVS
TAF
KLVS 291727Z 2918/3018 16013KT P6SM SCT100
     FM291930 19018G28KT P6SM VCSH SCT110
     FM300200 16008KT P6SM SCT140
     FM300900 18006KT P6SM FEW140=

USA.gov is the U.S. government's official web portal to all federal, state and local government web resources and services.